createdAt,value
2018-11-04T00:01:01.724Z,2.80
2018-11-04T00:03:30.195Z,2.70
2018-11-04T00:05:58.687Z,2.70
2018-11-04T00:08:27.935Z,2.70
2018-11-04T00:10:56.262Z,2.60
2018-11-04T00:13:24.729Z,2.60
2018-11-04T00:15:53.048Z,2.60
2018-11-04T00:18:21.375Z,2.50
2018-11-04T00:20:49.739Z,2.50
2018-11-04T00:23:18.072Z,2.50
2018-11-04T00:25:46.451Z,2.40
2018-11-04T00:28:14.784Z,2.40
2018-11-04T00:30:43.137Z,2.30
2018-11-04T00:33:11.466Z,2.30
2018-11-04T00:35:39.808Z,2.20
2018-11-04T00:38:08.143Z,2.10
2018-11-04T00:40:36.486Z,2.10
2018-11-04T00:43:05.143Z,2.10
2018-11-04T00:45:33.662Z,2.00
2018-11-04T00:48:01.936Z,2.00
2018-11-04T00:50:30.283Z,2.00
2018-11-04T00:52:59.327Z,2.00
2018-11-04T00:55:27.793Z,2.00
2018-11-04T00:57:56.117Z,1.90
2018-11-04T01:00:24.472Z,1.90
2018-11-04T01:02:52.801Z,1.80
2018-11-04T01:05:21.178Z,1.80
2018-11-04T01:07:49.515Z,1.70
2018-11-04T01:10:17.860Z,1.70
2018-11-04T01:12:46.259Z,1.70
2018-11-04T01:15:15.332Z,1.70
2018-11-04T01:17:44.111Z,1.70
2018-11-04T01:20:14.152Z,1.60
2018-11-04T01:22:42.823Z,1.50
2018-11-04T01:25:11.187Z,1.50
2018-11-04T01:27:39.637Z,1.50
2018-11-04T01:30:10.061Z,1.40
2018-11-04T01:32:38.389Z,1.40
2018-11-04T01:35:07.179Z,1.40
2018-11-04T01:37:35.530Z,1.40
2018-11-04T01:40:04.094Z,1.40
2018-11-04T01:42:32.425Z,1.40
2018-11-04T01:45:00.880Z,1.30
2018-11-04T01:47:29.279Z,1.30
2018-11-04T01:49:57.587Z,1.30
2018-11-04T01:52:25.750Z,1.30
2018-11-04T01:54:53.898Z,1.30
2018-11-04T01:57:22.090Z,1.30
2018-11-04T01:59:50.283Z,1.30
2018-11-04T02:02:18.431Z,1.20
2018-11-04T02:04:46.653Z,1.20
2018-11-04T02:07:14.935Z,1.20
2018-11-04T02:09:43.201Z,1.20
2018-11-04T02:12:11.513Z,1.20
2018-11-04T02:14:40.019Z,1.20
2018-11-04T02:17:08.347Z,1.20
2018-11-04T02:19:36.618Z,1.20
2018-11-04T02:22:05.176Z,1.10
2018-11-04T02:24:33.455Z,1.20
2018-11-04T02:27:01.776Z,1.20
2018-11-04T02:29:30.115Z,1.20
2018-11-04T02:31:58.571Z,1.20
2018-11-04T02:34:26.879Z,1.20
2018-11-04T02:36:55.238Z,1.20
2018-11-04T02:39:23.576Z,1.20
2018-11-04T02:41:51.932Z,1.30
2018-11-04T02:44:20.227Z,1.30
2018-11-04T02:46:48.649Z,1.30
2018-11-04T02:49:17.032Z,1.30
2018-11-04T02:51:45.358Z,1.30
2018-11-04T02:54:13.687Z,1.30
2018-11-04T02:56:42.015Z,1.20
2018-11-04T02:59:10.314Z,1.20
2018-11-04T03:01:38.648Z,1.20
2018-11-04T03:04:06.911Z,1.20
2018-11-04T03:06:35.294Z,1.20
2018-11-04T03:09:03.691Z,1.20
2018-11-04T03:11:32.162Z,1.20
2018-11-04T03:14:00.481Z,1.20
2018-11-04T03:16:28.823Z,1.20
2018-11-04T03:18:57.118Z,1.10
2018-11-04T03:21:25.440Z,1.10
2018-11-04T03:23:53.902Z,1.20
2018-11-04T03:26:22.228Z,1.10
2018-11-04T03:28:50.515Z,1.10
2018-11-04T03:31:19.045Z,1.10
2018-11-04T03:33:47.340Z,1.10
2018-11-04T03:36:15.643Z,1.00
2018-11-04T03:38:43.953Z,1.00
2018-11-04T03:41:12.249Z,1.00
2018-11-04T03:43:40.556Z,0.90
2018-11-04T03:46:08.860Z,0.90
2018-11-04T03:48:37.411Z,0.90
2018-11-04T03:51:05.847Z,0.90
2018-11-04T03:53:34.316Z,0.90
2018-11-04T03:56:02.682Z,0.90
2018-11-04T03:58:30.990Z,0.90
2018-11-04T04:00:59.277Z,0.90
2018-11-04T04:03:27.623Z,0.90
2018-11-04T04:05:55.928Z,0.90
2018-11-04T04:08:24.238Z,0.90
2018-11-04T04:10:52.527Z,0.90
2018-11-04T04:13:20.823Z,0.90
2018-11-04T04:15:49.123Z,0.90
2018-11-04T04:18:17.433Z,0.90
2018-11-04T04:20:45.762Z,0.90
2018-11-04T04:23:14.080Z,0.90
2018-11-04T04:25:42.410Z,0.90
2018-11-04T04:28:10.770Z,0.80
2018-11-04T04:30:39.067Z,0.80
2018-11-04T04:33:07.342Z,0.80
2018-11-04T04:35:35.703Z,0.70
2018-11-04T04:38:04.131Z,0.70
2018-11-04T04:40:32.444Z,0.70
2018-11-04T04:43:00.778Z,0.60
2018-11-04T04:45:29.173Z,0.60
2018-11-04T04:47:57.539Z,0.60
2018-11-04T04:50:25.843Z,0.50
2018-11-04T04:52:54.169Z,0.50
2018-11-04T04:55:22.677Z,0.50
2018-11-04T04:57:51.072Z,0.50
2018-11-04T05:00:19.427Z,0.60
2018-11-04T05:02:47.786Z,0.60
2018-11-04T05:05:16.186Z,0.60
2018-11-04T05:07:44.550Z,0.70
2018-11-04T05:10:12.855Z,0.70
2018-11-04T05:12:41.195Z,0.80
2018-11-04T05:15:09.673Z,0.80
2018-11-04T05:17:38.121Z,0.90
2018-11-04T05:20:06.506Z,0.90
2018-11-04T05:22:34.854Z,1.00
2018-11-04T05:25:03.156Z,1.10
2018-11-04T05:27:31.490Z,1.10
2018-11-04T05:29:59.847Z,1.20
2018-11-04T05:32:28.199Z,1.10
2018-11-04T05:34:56.524Z,1.00
2018-11-04T05:37:24.920Z,1.00
2018-11-04T05:39:53.227Z,1.10
2018-11-04T05:42:21.618Z,1.20
2018-11-04T05:44:50.019Z,1.20
2018-11-04T05:47:18.342Z,1.30
2018-11-04T05:49:46.646Z,1.30
2018-11-04T05:52:14.976Z,1.40
2018-11-04T05:54:43.316Z,1.40
2018-11-04T05:57:11.631Z,1.50
2018-11-04T05:59:39.944Z,1.50
2018-11-04T06:02:08.195Z,1.60
2018-11-04T06:04:36.535Z,1.70
2018-11-04T06:07:05.122Z,1.70
2018-11-04T06:09:33.434Z,1.70
2018-11-04T06:12:01.729Z,1.70
2018-11-04T06:14:30.048Z,1.80
2018-11-04T06:16:58.345Z,1.90
2018-11-04T06:19:26.688Z,1.90
2018-11-04T06:21:54.962Z,2.00
2018-11-04T06:24:23.292Z,2.00
2018-11-04T06:26:51.651Z,2.10
2018-11-04T06:29:20.286Z,2.10
2018-11-04T06:31:49.169Z,2.10
2018-11-04T06:34:17.512Z,2.20
2018-11-04T06:36:45.803Z,2.20
2018-11-04T06:39:14.212Z,2.30
2018-11-04T06:41:42.511Z,2.30
2018-11-04T06:44:10.850Z,2.30
2018-11-04T06:46:39.299Z,2.30
2018-11-04T06:49:07.660Z,2.40
2018-11-04T06:51:35.986Z,2.50
2018-11-04T06:54:04.368Z,2.50
2018-11-04T06:56:32.671Z,2.50
2018-11-04T06:59:00.998Z,2.60
2018-11-04T07:01:29.319Z,2.60
2018-11-04T07:04:08.966Z,2.70
2018-11-04T07:06:37.230Z,2.80
2018-11-04T07:09:07.681Z,2.80
2018-11-04T07:11:37.152Z,2.80
2018-11-04T07:14:05.305Z,2.90
2018-11-04T07:16:33.472Z,3.00
2018-11-04T07:19:01.628Z,3.00
2018-11-04T07:21:29.775Z,3.00
2018-11-04T07:23:57.970Z,3.10
2018-11-04T07:26:26.203Z,3.10
2018-11-04T07:28:54.359Z,3.20
2018-11-04T07:31:22.582Z,3.20
2018-11-04T07:33:50.830Z,3.30
2018-11-04T07:36:19.367Z,3.30
2018-11-04T07:38:47.558Z,3.30
2018-11-04T07:41:15.724Z,3.40
2018-11-04T07:43:44.027Z,3.50
2018-11-04T07:46:12.180Z,3.50
2018-11-04T07:48:40.344Z,3.60
2018-11-04T07:51:08.534Z,3.70
2018-11-04T07:53:36.708Z,3.80
2018-11-04T07:56:04.877Z,3.90
2018-11-04T07:58:33.630Z,4.00
2018-11-04T08:01:02.087Z,4.10
2018-11-04T08:03:30.344Z,4.20
2018-11-04T08:05:58.709Z,4.40
2018-11-04T08:08:27.048Z,4.50
2018-11-04T08:10:55.400Z,4.50
2018-11-04T08:13:23.740Z,4.60
2018-11-04T08:15:53.513Z,4.70
2018-11-04T08:18:23.191Z,4.80
2018-11-04T08:20:51.438Z,4.80
2018-11-04T08:23:19.587Z,4.90
2018-11-04T08:25:48.071Z,5.00
2018-11-04T08:28:16.235Z,5.00
2018-11-04T08:31:47.902Z,5.10
2018-11-04T08:34:16.040Z,5.20
2018-11-04T08:36:44.203Z,5.40
2018-11-04T08:39:12.360Z,5.40
2018-11-04T08:41:40.534Z,5.50
2018-11-04T08:44:08.987Z,5.60
2018-11-04T08:46:37.400Z,5.70
2018-11-04T08:49:05.619Z,5.80
2018-11-04T08:51:34.012Z,5.80
2018-11-04T08:54:02.220Z,5.90
2018-11-04T08:56:30.803Z,6.00
2018-11-04T08:58:58.967Z,6.00
2018-11-04T09:01:27.135Z,6.10
2018-11-04T09:03:55.268Z,6.20
2018-11-04T09:06:23.464Z,6.20
2018-11-04T09:08:51.929Z,6.30
2018-11-04T09:11:20.459Z,6.40
2018-11-04T09:13:48.855Z,6.50
2018-11-04T09:16:17.275Z,6.60
2018-11-04T09:18:45.651Z,6.60
2018-11-04T09:21:13.971Z,6.70
2018-11-04T09:23:42.357Z,6.80
2018-11-04T09:26:10.623Z,6.90
2018-11-04T09:28:38.939Z,7.00
2018-11-04T09:31:07.343Z,7.00
2018-11-04T09:33:35.662Z,7.10
2018-11-04T09:36:04.048Z,7.20
2018-11-04T09:38:32.285Z,7.20
2018-11-04T09:41:00.586Z,7.30
2018-11-04T09:43:28.883Z,7.30
2018-11-04T09:45:57.262Z,7.40
2018-11-04T09:48:25.567Z,7.50
2018-11-04T09:50:53.879Z,7.60
2018-11-04T09:53:22.132Z,7.70
2018-11-04T09:55:50.460Z,7.70
2018-11-04T09:58:18.785Z,7.90
2018-11-04T10:00:47.215Z,8.00
2018-11-04T10:03:15.599Z,8.10
2018-11-04T10:05:44.060Z,8.20
2018-11-04T10:08:12.370Z,8.20
2018-11-04T10:10:40.703Z,8.30
2018-11-04T10:13:09.710Z,8.40
2018-11-04T10:15:38.031Z,8.40
2018-11-04T10:18:06.377Z,8.50
2018-11-04T10:20:35.101Z,8.60
2018-11-04T10:23:03.014Z,8.70
2018-11-04T10:25:32.745Z,8.70
2018-11-04T10:28:08.363Z,8.70
2018-11-04T11:00:32.736Z,9.10
2018-11-04T11:03:02.609Z,9.40
2018-11-04T11:05:32.349Z,9.40
2018-11-04T11:08:00.550Z,9.50
2018-11-04T11:10:29.126Z,9.60
2018-11-04T11:12:57.688Z,9.70
2018-11-04T11:15:25.912Z,9.70
2018-11-04T11:17:54.363Z,9.70
2018-11-04T11:20:22.667Z,9.70
2018-11-04T11:22:51.197Z,9.70
2018-11-04T11:25:19.455Z,9.80
2018-11-04T11:27:47.766Z,9.80
2018-11-04T11:30:16.298Z,9.90
2018-11-04T11:32:44.386Z,9.90
2018-11-04T11:35:12.706Z,10.00
2018-11-04T11:37:42.244Z,10.00
2018-11-04T11:40:10.859Z,10.00
2018-11-04T11:42:39.319Z,10.00
2018-11-04T11:45:08.399Z,10.00
2018-11-04T11:47:36.777Z,10.00
2018-11-04T11:50:05.754Z,10.00
2018-11-04T11:52:34.222Z,10.10
2018-11-04T11:55:02.387Z,10.10
2018-11-04T11:57:30.720Z,10.20
2018-11-04T11:59:59.035Z,10.20
2018-11-04T12:02:27.354Z,10.30
2018-11-04T12:04:55.854Z,10.30
2018-11-04T12:07:24.518Z,10.40
2018-11-04T12:09:52.864Z,10.40
2018-11-04T12:12:21.021Z,10.40
2018-11-04T12:14:49.578Z,10.50
2018-11-04T12:17:18.627Z,10.40
2018-11-04T12:19:47.264Z,10.50
2018-11-04T12:22:15.804Z,10.50
2018-11-04T12:24:44.349Z,10.50
2018-11-04T12:27:12.924Z,10.50
2018-11-04T12:29:41.095Z,10.60
2018-11-04T12:32:09.251Z,10.60
2018-11-04T12:34:37.402Z,10.60
2018-11-04T12:37:05.596Z,10.60
2018-11-04T12:39:33.828Z,10.70
2018-11-04T12:42:02.417Z,10.70
2018-11-04T12:44:30.891Z,10.70
2018-11-04T12:46:59.027Z,10.70
2018-11-04T12:49:27.207Z,10.80
2018-11-04T12:51:55.348Z,10.80
2018-11-04T12:54:23.509Z,10.80
2018-11-04T12:56:51.650Z,10.80
2018-11-04T12:59:19.814Z,10.90
2018-11-04T13:01:47.991Z,10.80
2018-11-04T13:04:16.369Z,10.90
2018-11-04T13:06:44.527Z,10.90
2018-11-04T13:09:13.023Z,10.90
2018-11-04T13:11:41.348Z,10.90
2018-11-04T13:14:09.848Z,10.90
2018-11-04T13:16:38.253Z,10.90
2018-11-04T13:19:06.402Z,10.90
2018-11-04T13:21:35.272Z,10.90
2018-11-04T13:24:03.488Z,10.90
2018-11-04T13:26:31.826Z,10.90
2018-11-04T13:29:00.058Z,10.90
2018-11-04T13:31:28.524Z,10.90
2018-11-04T13:33:57.035Z,10.90
2018-11-04T13:36:25.187Z,10.90
2018-11-04T13:38:53.342Z,10.90
2018-11-04T13:41:21.811Z,10.80
2018-11-04T13:43:49.958Z,10.80
2018-11-04T13:46:18.378Z,10.80
2018-11-04T13:48:46.550Z,10.80
2018-11-04T13:51:15.143Z,10.80
2018-11-04T13:53:43.314Z,10.80
2018-11-04T13:56:11.731Z,10.80
2018-11-04T13:58:39.907Z,10.80
2018-11-04T14:01:08.066Z,10.80
2018-11-04T14:03:36.322Z,10.80
2018-11-04T14:06:04.518Z,10.80
2018-11-04T14:08:33.316Z,10.80
2018-11-04T14:11:01.491Z,10.80
2018-11-04T14:13:30.000Z,10.80
2018-11-04T14:15:58.099Z,10.80
2018-11-04T14:18:26.245Z,10.80
2018-11-04T14:20:54.826Z,10.80
2018-11-04T14:23:23.363Z,10.80
2018-11-04T14:25:51.539Z,10.80
2018-11-04T14:28:19.684Z,10.90
2018-11-04T14:30:47.902Z,10.90
2018-11-04T14:33:16.056Z,10.90
2018-11-04T14:35:44.576Z,11.00
2018-11-04T14:38:12.748Z,10.90
2018-11-04T14:40:40.906Z,10.90
2018-11-04T14:43:09.154Z,10.90
2018-11-04T14:45:37.431Z,10.90
2018-11-04T14:48:08.838Z,10.90
2018-11-04T14:50:37.050Z,10.80
2018-11-04T14:53:05.681Z,10.80
2018-11-04T14:55:34.035Z,10.70
2018-11-04T14:58:02.154Z,10.60
2018-11-04T15:00:34.879Z,10.60
2018-11-04T15:03:03.604Z,10.60
2018-11-04T15:05:31.859Z,10.50
2018-11-04T15:08:00.179Z,10.40
2018-11-04T15:10:28.601Z,10.40
2018-11-04T15:12:56.900Z,10.30
2018-11-04T15:15:25.300Z,10.20
2018-11-04T15:17:53.620Z,10.10
2018-11-04T15:20:21.943Z,10.00
2018-11-04T15:22:51.446Z,10.00
2018-11-04T15:25:20.883Z,9.90
2018-11-04T15:27:49.561Z,9.80
2018-11-04T15:30:17.957Z,9.70
2018-11-04T15:32:46.376Z,9.70
2018-11-04T15:35:15.567Z,9.60
2018-11-04T15:37:43.926Z,9.50
2018-11-04T15:40:13.677Z,9.50
2018-11-04T15:42:41.997Z,9.40
2018-11-04T15:45:11.973Z,9.30
2018-11-04T15:47:40.571Z,9.20
2018-11-04T15:50:11.332Z,9.20
2018-11-04T15:52:39.594Z,9.10
2018-11-04T15:55:08.080Z,9.00
2018-11-04T15:57:36.414Z,9.00
2018-11-04T16:00:07.476Z,8.90
2018-11-04T16:02:35.777Z,8.80
2018-11-04T16:05:04.211Z,8.80
2018-11-04T16:07:32.566Z,8.80
2018-11-04T16:10:00.873Z,8.80
2018-11-04T16:12:29.219Z,8.70
2018-11-04T16:14:57.514Z,8.70
2018-11-04T16:17:25.913Z,8.70
2018-11-04T16:19:54.209Z,8.70
2018-11-04T16:22:22.505Z,8.80
2018-11-04T16:24:50.831Z,8.80
2018-11-04T16:27:19.126Z,8.90
2018-11-04T16:29:47.464Z,8.90
2018-11-04T16:32:15.798Z,8.90
2018-11-04T16:34:44.110Z,8.90
2018-11-04T16:37:12.407Z,8.90
2018-11-04T16:39:40.718Z,8.90
2018-11-04T16:42:09.147Z,8.90
2018-11-04T16:44:37.512Z,8.90
2018-11-04T16:47:05.815Z,8.90
2018-11-04T16:49:34.121Z,8.90
2018-11-04T16:52:02.486Z,8.90
2018-11-04T16:54:30.862Z,8.90
2018-11-04T16:56:59.201Z,9.00
2018-11-04T16:59:27.521Z,9.00
2018-11-04T17:01:55.858Z,9.10
2018-11-04T17:04:24.328Z,9.10
2018-11-04T17:06:52.536Z,9.10
2018-11-04T17:09:20.863Z,9.20
2018-11-04T17:11:49.169Z,9.30
2018-11-04T17:14:17.524Z,9.30
2018-11-04T17:16:45.887Z,9.30
2018-11-04T17:19:14.196Z,9.30
2018-11-04T17:21:42.543Z,9.30
2018-11-04T17:24:10.867Z,9.30
2018-11-04T17:26:39.303Z,9.30
2018-11-04T17:29:07.751Z,9.30
2018-11-04T17:31:36.091Z,9.30
2018-11-04T17:34:04.735Z,9.40
2018-11-04T17:36:33.211Z,9.50
2018-11-04T17:39:01.457Z,9.50
2018-11-04T17:41:29.781Z,9.50
2018-11-04T17:43:58.237Z,9.60
2018-11-04T17:46:26.630Z,9.60
2018-11-04T17:48:54.983Z,9.60
2018-11-04T17:51:23.303Z,9.60
2018-11-04T17:53:51.670Z,9.70
2018-11-04T17:56:19.951Z,9.60
2018-11-04T17:58:48.307Z,9.60
2018-11-04T18:01:16.621Z,9.60
2018-11-04T18:03:44.943Z,9.60
2018-11-04T18:06:13.255Z,9.60
2018-11-04T18:08:41.586Z,9.60
2018-11-04T18:11:09.992Z,9.70
2018-11-04T18:13:38.435Z,9.70
2018-11-04T18:16:06.971Z,9.70
2018-11-04T18:18:35.332Z,9.70
2018-11-04T18:21:03.715Z,9.70
2018-11-04T18:23:32.308Z,9.70
2018-11-04T18:26:00.853Z,9.70
2018-11-04T18:28:35.992Z,9.80
2018-11-04T18:31:04.555Z,9.70
2018-11-04T18:33:32.929Z,9.70
2018-11-04T18:36:01.402Z,9.80
2018-11-04T18:38:29.943Z,9.80
2018-11-04T18:40:58.348Z,9.70
2018-11-04T18:43:26.861Z,9.80
2018-11-04T18:45:55.414Z,9.70
2018-11-04T18:48:23.923Z,9.70
2018-11-04T18:50:52.479Z,9.60
2018-11-04T18:53:20.823Z,9.60
2018-11-04T18:55:49.316Z,9.60
2018-11-04T18:58:17.871Z,9.60
2018-11-04T19:00:46.215Z,9.60
2018-11-04T19:03:14.565Z,9.50
2018-11-04T19:05:42.912Z,9.50
2018-11-04T19:08:11.227Z,9.50
2018-11-04T19:10:39.613Z,9.50
2018-11-04T19:13:08.032Z,9.50
2018-11-04T19:15:36.383Z,9.50
2018-11-04T19:18:04.774Z,9.50
2018-11-04T19:20:33.142Z,9.50
2018-11-04T19:23:01.519Z,9.50
2018-11-04T19:25:29.847Z,9.50
2018-11-04T19:27:58.200Z,9.50
2018-11-04T19:30:26.535Z,9.50
2018-11-04T19:32:55.261Z,9.50
2018-11-04T19:35:23.989Z,9.50
2018-11-04T19:37:52.512Z,9.50
2018-11-04T19:40:21.210Z,9.50
2018-11-04T19:42:49.936Z,9.50
2018-11-04T19:45:18.594Z,9.40
2018-11-04T19:47:46.741Z,9.50
2018-11-04T19:50:15.286Z,9.50
2018-11-04T19:52:43.479Z,9.50
2018-11-04T19:55:12.402Z,9.50
2018-11-04T19:57:40.598Z,9.50
2018-11-04T20:00:09.815Z,9.50
2018-11-04T20:02:38.223Z,9.50
2018-11-04T20:05:08.107Z,9.50
2018-11-04T20:07:36.203Z,9.50
2018-11-04T20:10:06.232Z,9.50
2018-11-04T20:12:39.856Z,9.50
2018-11-04T20:15:08.038Z,9.50
2018-11-04T20:17:36.178Z,9.50
2018-11-04T20:20:11.977Z,9.50
2018-11-04T20:22:40.318Z,9.50
2018-11-04T20:25:13.794Z,9.50
2018-11-04T20:27:43.652Z,9.50
2018-11-04T20:30:14.862Z,9.40
2018-11-04T20:32:48.724Z,9.40
2018-11-04T20:35:17.143Z,9.40
2018-11-04T20:37:45.474Z,9.40
2018-11-04T20:41:20.665Z,9.40
2018-11-04T20:43:48.818Z,9.40
2018-11-04T20:46:16.962Z,9.40
2018-11-04T20:48:51.055Z,9.50
2018-11-04T20:51:19.903Z,9.50
2018-11-04T20:53:48.038Z,9.50
2018-11-04T20:56:21.660Z,9.50
2018-11-04T20:58:49.820Z,9.50
2018-11-04T21:01:18.746Z,9.50
2018-11-04T21:03:47.094Z,9.50
2018-11-04T21:06:15.377Z,9.50
2018-11-04T21:08:43.770Z,9.40
2018-11-04T21:11:12.131Z,9.40
2018-11-04T21:13:40.464Z,9.40
2018-11-04T21:16:08.861Z,9.50
2018-11-04T21:18:37.112Z,9.40
2018-11-04T21:21:05.455Z,9.50
2018-11-04T21:23:33.778Z,9.50
2018-11-04T21:26:02.257Z,9.50
2018-11-04T21:28:30.746Z,9.50
2018-11-04T21:30:58.919Z,9.50
2018-11-04T21:33:27.235Z,9.50
2018-11-04T21:35:55.579Z,9.40
2018-11-04T21:38:23.943Z,9.40
2018-11-04T21:40:52.252Z,9.40
2018-11-04T21:43:20.857Z,9.40
2018-11-04T21:45:48.936Z,9.40
2018-11-04T21:48:17.275Z,9.40
2018-11-04T21:50:45.628Z,9.40
2018-11-04T21:53:13.932Z,9.30
2018-11-04T21:55:42.519Z,9.30
2018-11-04T21:58:12.943Z,9.30
2018-11-04T22:00:41.289Z,9.40
2018-11-04T22:03:09.791Z,9.30
2018-11-04T22:05:38.096Z,9.40
2018-11-04T22:08:06.490Z,9.40
2018-11-04T22:10:34.911Z,9.40
2018-11-04T22:13:03.152Z,9.40
2018-11-04T22:15:31.495Z,9.40
2018-11-04T22:17:59.803Z,9.40
2018-11-04T22:20:28.147Z,9.30
2018-11-04T22:22:56.452Z,9.30
2018-11-04T22:25:24.788Z,9.30
2018-11-04T22:27:53.101Z,9.30
2018-11-04T22:30:21.440Z,9.40
2018-11-04T22:32:49.747Z,9.30
2018-11-04T22:35:18.113Z,9.30
2018-11-04T22:37:46.407Z,9.30
2018-11-04T22:40:14.751Z,9.40
2018-11-04T22:42:43.055Z,9.30
2018-11-04T22:45:12.210Z,9.30
2018-11-04T22:47:41.398Z,9.40
2018-11-04T22:50:11.989Z,9.40
2018-11-04T22:52:41.029Z,9.40
2018-11-04T22:55:09.601Z,9.30
2018-11-04T22:57:39.144Z,9.40
2018-11-04T23:00:13.530Z,9.30
2018-11-04T23:02:41.881Z,9.30
2018-11-04T23:05:26.399Z,9.40
2018-11-04T23:07:54.550Z,9.30
2018-11-04T23:10:22.722Z,9.30
2018-11-04T23:12:51.530Z,9.30
2018-11-04T23:15:19.943Z,9.30
2018-11-04T23:17:48.250Z,9.30
2018-11-04T23:20:16.548Z,9.30
2018-11-04T23:22:44.884Z,9.30
2018-11-04T23:25:14.184Z,9.30
2018-11-04T23:27:43.277Z,9.30
2018-11-04T23:30:13.760Z,9.30
2018-11-04T23:32:42.401Z,9.30
2018-11-04T23:35:11.473Z,9.30
2018-11-04T23:37:40.020Z,9.30
2018-11-04T23:40:09.006Z,9.30
2018-11-04T23:42:37.336Z,9.30
2018-11-04T23:45:06.414Z,9.30
2018-11-04T23:47:34.754Z,9.40
2018-11-04T23:50:03.188Z,9.40
2018-11-04T23:52:31.571Z,9.30
2018-11-04T23:54:59.876Z,9.40
2018-11-04T23:57:28.218Z,9.40
2018-11-04T23:59:56.516Z,9.40
